Time;durP1;ratioP1;P1;durP2;ratioP2;P2;SDS_P1;SDS_P2;PMS_P1;PMS_P2;Temp;Humidity;BMP_temperature;BMP_pressure;BME280_temperature;BME280_humidity;BME280_pressure;Samples;Min_cycle;Max_cycle;Signal;HPM_P1;HPM_P2
2020/12/30 00:00:10;;;;;;;11.40;8.60;;;8.40;91.80;;;;;;5108266;28;20581;-80
2020/12/30 00:02:36;;;;;;;8.57;7.70;;;8.70;91.50;;;;;;5110203;28;20211;-79
2020/12/30 00:05:09;;;;;;;11.05;8.70;;;8.70;91.50;;;;;;5110688;28;20232;-80
2020/12/30 00:07:36;;;;;;;12.48;8.38;;;8.70;91.60;;;;;;5110188;28;20787;-80
2020/12/30 00:10:15;;;;;;;12.73;8.90;;;8.70;91.80;;;;;;5110069;28;20199;-79
2020/12/30 00:12:47;;;;;;;12.52;8.77;;;8.80;91.50;;;;;;5110319;28;20266;-80
2020/12/30 00:15:19;;;;;;;8.07;6.80;;;8.80;91.40;;;;;;5109994;28;20156;-80
2020/12/30 00:17:45;;;;;;;11.98;8.57;;;8.80;91.50;;;;;;5107983;28;20183;-80
2020/12/30 00:20:16;;;;;;;11.90;8.90;;;8.90;91.80;;;;;;5109895;28;20228;-80
2020/12/30 00:22:45;;;;;;;9.23;8.32;;;9.00;91.40;;;;;;5110622;28;20657;-79
2020/12/30 00:25:12;;;;;;;11.10;9.43;;;9.00;91.30;;;;;;5110085;28;20624;-80
2020/12/30 00:27:42;;;;;;;8.65;7.75;;;9.00;91.70;;;;;;5109242;28;20179;-80
2020/12/30 00:30:18;;;;;;;8.70;7.80;;;8.90;92.40;;;;;;5107908;28;20186;-80
2020/12/30 00:32:45;;;;;;;14.18;9.00;;;8.90;92.10;;;;;;5108712;28;20189;-80
2020/12/30 00:35:12;;;;;;;10.30;8.75;;;8.90;92.30;;;;;;5109590;28;20241;-79
2020/12/30 00:37:43;;;;;;;12.05;10.60;;;8.90;92.10;;;;;;5109532;28;20243;-80
2020/12/30 00:40:15;;;;;;;12.18;9.52;;;8.80;92.80;;;;;;5108176;28;20183;-80
2020/12/30 00:42:40;;;;;;;12.20;9.23;;;8.70;93.60;;;;;;5107774;28;20219;-80
2020/12/30 00:45:13;;;;;;;12.63;10.80;;;8.70;93.40;;;;;;5108666;28;20194;-80
2020/12/30 00:47:39;;;;;;;11.40;8.57;;;8.70;94.00;;;;;;5108816;28;20184;-80
2020/12/30 00:50:06;;;;;;;11.33;10.13;;;8.60;94.30;;;;;;5109133;28;20170;-80
2020/12/30 00:52:41;;;;;;;12.05;9.50;;;8.60;94.80;;;;;;5109134;28;20179;-80
2020/12/30 00:55:11;;;;;;;11.60;8.90;;;8.70;94.50;;;;;;5108666;28;20195;-80
2020/12/30 00:57:40;;;;;;;13.02;8.88;;;8.60;95.10;;;;;;5109323;27;20257;-80
2020/12/30 01:00:09;;;;;;;11.27;9.63;;;8.50;95.50;;;;;;5109076;28;20659;-80
2020/12/30 01:02:37;;;;;;;13.45;8.60;;;8.60;95.60;;;;;;5108306;28;20212;-80
2020/12/30 01:05:06;;;;;;;12.75;8.65;;;8.70;95.50;;;;;;5106898;28;20180;-80
2020/12/30 01:07:31;;;;;;;9.88;8.48;;;8.70;95.60;;;;;;5107333;28;20647;-80
2020/12/30 01:10:00;;;;;;;15.07;9.83;;;8.80;95.80;;;;;;5109133;28;20215;-79
2020/12/30 01:12:25;;;;;;;10.20;9.00;;;8.90;95.80;;;;;;5107616;28;20188;-80
2020/12/30 01:14:51;;;;;;;10.73;9.53;;;8.90;95.80;;;;;;5109236;28;20741;-80
2020/12/30 01:17:22;;;;;;;8.90;8.00;;;8.80;96.00;;;;;;5109339;28;20290;-80
2020/12/30 01:19:48;;;;;;;13.27;9.82;;;8.90;95.80;;;;;;5107902;28;20172;-80
2020/12/30 01:22:22;;;;;;;15.73;9.20;;;8.80;96.00;;;;;;5108535;28;20211;-80
2020/12/30 01:24:56;;;;;;;16.70;10.38;;;8.80;96.30;;;;;;5109104;28;20210;-80
2020/12/30 01:27:22;;;;;;;15.35;12.00;;;8.70;96.90;;;;;;5109056;28;20175;-80
2020/12/30 01:29:47;;;;;;;19.63;12.70;;;8.70;96.60;;;;;;5108314;28;20179;-80
2020/12/30 01:32:17;;;;;;;47.23;27.77;;;8.80;96.60;;;;;;5108427;28;20551;-80
2020/12/30 01:34:45;;;;;;;33.67;21.52;;;8.90;96.30;;;;;;5108201;28;20172;-80
2020/12/30 01:37:14;;;;;;;28.67;17.92;;;8.90;96.40;;;;;;5107117;28;20279;-80
2020/12/30 01:39:45;;;;;;;27.50;19.52;;;8.90;96.40;;;;;;5108293;28;20701;-80
2020/12/30 01:42:17;;;;;;;27.33;18.95;;;8.80;96.60;;;;;;5108841;28;20203;-80
2020/12/30 01:44:55;;;;;;;35.95;23.55;;;8.90;96.40;;;;;;5107657;28;20163;-80
2020/12/30 01:47:27;;;;;;;44.33;27.27;;;8.90;96.60;;;;;;5106849;28;20194;-80
2020/12/30 01:49:55;;;;;;;32.33;20.98;;;8.80;97.00;;;;;;5107256;28;20179;-80
2020/12/30 01:52:24;;;;;;;23.00;16.80;;;8.70;97.10;;;;;;5107857;28;20271;-80
2020/12/30 01:54:55;;;;;;;22.48;15.27;;;8.70;97.00;;;;;;5107744;28;20187;-80
2020/12/30 01:57:28;;;;;;;18.65;13.77;;;8.70;97.10;;;;;;5108631;28;20695;-80
2020/12/30 01:59:57;;;;;;;19.38;12.57;;;8.70;97.10;;;;;;5106701;28;20263;-79
2020/12/30 02:02:24;;;;;;;12.90;10.63;;;8.70;97.20;;;;;;5108066;28;20548;-80
2020/12/30 02:05:00;;;;;;;12.02;9.85;;;8.70;97.30;;;;;;5106499;28;20176;-79
2020/12/30 02:07:26;;;;;;;16.17;9.80;;;8.60;97.50;;;;;;5107929;28;20221;-79
2020/12/30 02:10:05;;;;;;;12.55;9.98;;;8.50;97.70;;;;;;5105529;28;20624;-79
2020/12/30 02:12:34;;;;;;;12.30;8.57;;;8.50;97.70;;;;;;5108056;28;20534;-79
2020/12/30 02:15:05;;;;;;;11.45;9.85;;;8.50;97.80;;;;;;5107103;28;20627;-79
2020/12/30 02:17:31;;;;;;;12.30;9.15;;;8.50;97.90;;;;;;5108429;28;20678;-79
2020/12/30 02:19:56;;;;;;;12.90;9.70;;;8.40;98.00;;;;;;5106532;28;20240;-79
2020/12/30 02:22:30;;;;;;;11.47;9.50;;;8.40;98.10;;;;;;5106623;28;20655;-79
2020/12/30 02:24:56;;;;;;;12.27;9.18;;;8.40;97.90;;;;;;5106201;28;20182;-80
2020/12/30 02:27:22;;;;;;;11.93;9.23;;;8.40;98.10;;;;;;5107505;28;20171;-79
2020/12/30 02:29:47;;;;;;;10.33;9.17;;;8.40;98.20;;;;;;5107178;28;20404;-79
2020/12/30 02:32:13;;;;;;;15.47;9.77;;;8.30;98.30;;;;;;5107912;28;20704;-79
2020/12/30 02:34:38;;;;;;;10.60;8.77;;;8.30;98.30;;;;;;5106166;28;20198;-79
2020/12/30 02:37:13;;;;;;;11.90;9.23;;;8.30;98.40;;;;;;5107733;28;20182;-79
2020/12/30 02:39:44;;;;;;;13.35;9.88;;;8.30;98.50;;;;;;5086607;28;20218;-79
2020/12/30 02:42:09;;;;;;;12.02;10.20;;;8.30;98.50;;;;;;5086222;28;20572;-80
2020/12/30 02:44:41;;;;;;;11.10;9.03;;;8.30;98.50;;;;;;5087056;28;20176;-80
2020/12/30 02:47:06;;;;;;;12.40;9.57;;;8.30;98.70;;;;;;5087232;28;20184;-80
2020/12/30 02:49:32;;;;;;;11.40;10.20;;;8.30;98.60;;;;;;5087132;28;20176;-80
2020/12/30 02:52:13;;;;;;;17.23;10.10;;;8.20;98.90;;;;;;5087100;28;20715;-79
2020/12/30 02:54:38;;;;;;;11.63;10.20;;;8.20;99.00;;;;;;5086327;28;20228;-79
2020/12/30 02:57:04;;;;;;;14.70;10.90;;;8.20;99.10;;;;;;5086409;28;20679;-80
2020/12/30 02:59:29;;;;;;;10.87;9.70;;;8.20;99.10;;;;;;5085976;28;20291;-80
2020/12/30 03:01:58;;;;;;;13.00;10.87;;;8.10;99.20;;;;;;5086990;28;20216;-80
2020/12/30 03:04:35;;;;;;;11.85;10.30;;;8.10;99.30;;;;;;5087135;28;20528;-80
2020/12/30 03:07:04;;;;;;;25.70;18.95;;;8.10;99.50;;;;;;5087226;28;20180;-80
2020/12/30 03:09:39;;;;;;;31.63;22.25;;;8.10;99.70;;;;;;5086604;28;20557;-80
2020/12/30 03:12:08;;;;;;;39.85;23.83;;;8.20;99.70;;;;;;5087290;28;20184;-80
2020/12/30 03:14:42;;;;;;;38.17;25.20;;;8.20;99.80;;;;;;5086515;28;20184;-80
2020/12/30 03:17:07;;;;;;;21.92;16.95;;;8.30;99.70;;;;;;5085747;28;20184;-80
2020/12/30 03:19:36;;;;;;;21.20;16.60;;;8.30;99.80;;;;;;5087207;28;20236;-80
2020/12/30 03:22:05;;;;;;;19.10;15.20;;;8.30;99.80;;;;;;5086567;28;20203;-80
2020/12/30 03:24:33;;;;;;;17.40;14.85;;;8.30;99.80;;;;;;5086542;28;20192;-80
2020/12/30 03:26:59;;;;;;;20.15;16.33;;;8.30;99.70;;;;;;5089303;28;20178;-80
2020/12/30 03:29:36;;;;;;;21.13;15.60;;;8.30;99.70;;;;;;5089411;28;20242;-80
2020/12/30 03:32:05;;;;;;;16.42;12.20;;;8.40;99.60;;;;;;5090808;28;20658;-80
2020/12/30 03:34:30;;;;;;;16.38;13.25;;;8.40;99.70;;;;;;5093661;28;20184;-80
2020/12/30 03:36:56;;;;;;;19.87;14.07;;;8.40;99.80;;;;;;5111016;28;20574;-80
2020/12/30 03:39:21;;;;;;;16.57;12.70;;;8.40;99.90;;;;;;5111141;28;20310;-80
2020/12/30 03:41:47;;;;;;;15.30;13.20;;;8.50;99.90;;;;;;5110559;28;20207;-80
2020/12/30 03:44:15;;;;;;;16.00;11.30;;;8.50;99.90;;;;;;5109724;28;20180;-80
2020/12/30 03:46:41;;;;;;;13.85;11.70;;;8.50;99.90;;;;;;5109476;28;20200;-80
2020/12/30 03:49:09;;;;;;;15.00;11.50;;;8.50;99.90;;;;;;5111265;28;20226;-80
2020/12/30 03:51:35;;;;;;;13.10;10.77;;;8.60;99.90;;;;;;5110992;28;20176;-80
2020/12/30 03:54:00;;;;;;;12.60;10.23;;;8.50;99.90;;;;;;5110439;28;20277;-80
2020/12/30 03:56:38;;;;;;;11.50;9.60;;;8.60;99.90;;;;;;5110517;28;20187;-80
2020/12/30 03:59:09;;;;;;;14.95;10.50;;;8.50;99.90;;;;;;5110660;28;20620;-80
2020/12/30 04:01:35;;;;;;;14.27;9.82;;;8.60;99.90;;;;;;5109365;28;20183;-80
2020/12/30 04:04:12;;;;;;;10.50;9.40;;;8.70;99.90;;;;;;5109094;28;20183;-80
2020/12/30 04:06:44;;;;;;;11.32;9.38;;;8.70;99.90;;;;;;5110244;28;20179;-80
2020/12/30 04:09:13;;;;;;;11.63;9.70;;;8.70;99.90;;;;;;5109204;28;20172;-80
2020/12/30 04:11:41;;;;;;;10.25;9.20;;;8.80;99.90;;;;;;5110351;28;20226;-80
2020/12/30 04:14:07;;;;;;;13.80;10.55;;;8.70;99.90;;;;;;5110481;28;20172;-80
2020/12/30 04:16:35;;;;;;;13.57;10.67;;;8.70;99.90;;;;;;5110560;28;20627;-80
2020/12/30 04:19:04;;;;;;;10.65;9.65;;;8.70;99.90;;;;;;5109020;28;20180;-80
2020/12/30 04:21:29;;;;;;;14.85;10.15;;;8.80;99.90;;;;;;5108667;28;20206;-80
2020/12/30 04:23:56;;;;;;;14.23;10.90;;;8.80;99.90;;;;;;5110138;28;20655;-80
2020/12/30 04:26:24;;;;;;;12.15;10.88;;;8.80;99.80;;;;;;5110574;28;20650;-80
2020/12/30 04:28:59;;;;;;;11.15;9.90;;;8.90;99.80;;;;;;5109871;27;20389;-80
2020/12/30 04:31:24;;;;;;;14.98;10.43;;;8.80;99.80;;;;;;5110198;28;20179;-80
2020/12/30 04:33:56;;;;;;;10.13;8.97;;;8.90;99.70;;;;;;5110149;28;20179;-80
2020/12/30 04:36:21;;;;;;;13.63;9.63;;;8.90;99.70;;;;;;5108853;28;20262;-80
2020/12/30 04:38:56;;;;;;;13.73;10.10;;;8.80;99.80;;;;;;5109006;28;20263;-80
2020/12/30 04:41:32;;;;;;;12.13;10.38;;;8.80;99.90;;;;;;5109051;28;20723;-80
2020/12/30 04:44:03;;;;;;;12.10;9.43;;;8.80;99.90;;;;;;5108689;28;20180;-80
2020/12/30 04:46:39;;;;;;;11.80;10.20;;;8.80;99.90;;;;;;5109465;28;20184;-80
2020/12/30 04:49:21;;;;;;;11.85;10.27;;;8.80;99.90;;;;;;5108845;28;20183;-80
2020/12/30 04:51:47;;;;;;;14.95;10.25;;;8.80;99.90;;;;;;5107651;28;20187;-80
2020/12/30 04:54:17;;;;;;;12.98;10.30;;;8.90;99.90;;;;;;5109574;28;20230;-80
2020/12/30 04:57:04;;;;;;;13.07;10.45;;;8.90;99.80;;;;;;5109250;28;20180;-80
2020/12/30 04:59:35;;;;;;;17.77;11.20;;;8.80;99.90;;;;;;5109191;28;20255;-80
2020/12/30 05:02:20;;;;;;;12.45;10.90;;;8.80;99.90;;;;;;5108555;28;20625;-80
2020/12/30 05:04:55;;;;;;;14.02;12.27;;;8.80;99.90;;;;;;5109492;28;20189;-80
2020/12/30 05:07:20;;;;;;;13.55;10.95;;;8.80;99.90;;;;;;5106870;28;20222;-80
2020/12/30 05:09:46;;;;;;;12.90;11.40;;;8.90;99.90;;;;;;5109929;28;20248;-80
2020/12/30 05:12:22;;;;;;;14.70;12.00;;;8.90;99.60;;;;;;5109685;28;20199;-80
2020/12/30 05:14:48;;;;;;;12.80;11.40;;;8.90;99.90;;;;;;5109723;28;20256;-80
2020/12/30 05:17:26;;;;;;;14.40;12.57;;;8.90;99.70;;;;;;5109580;28;20527;-81
2020/12/30 05:19:57;;;;;;;15.20;13.35;;;8.80;99.80;;;;;;5109583;28;20533;-80
2020/12/30 05:22:26;;;;;;;16.13;12.38;;;8.90;99.70;;;;;;5109955;28;20207;-80
2020/12/30 05:24:52;;;;;;;17.85;13.07;;;8.90;99.40;;;;;;5107288;28;20167;-80
2020/12/30 05:27:23;;;;;;;15.23;12.57;;;8.80;99.50;;;;;;5109535;28;20190;-80
2020/12/30 05:29:51;;;;;;;15.35;13.27;;;8.80;99.50;;;;;;5109043;28;20730;-80
2020/12/30 05:32:56;;;;;;;16.05;13.93;;;8.90;99.40;;;;;;5109188;28;20215;-80
2020/12/30 05:35:22;;;;;;;17.00;14.10;;;8.80;99.50;;;;;;5107130;28;20182;-80
2020/12/30 05:37:54;;;;;;;18.47;13.77;;;8.80;99.50;;;;;;5108480;27;20176;-80
2020/12/30 05:40:31;;;;;;;21.60;15.77;;;8.70;99.50;;;;;;5107718;28;20160;-80
2020/12/30 05:43:23;;;;;;;18.80;15.45;;;8.80;99.40;;;;;;5108435;28;20762;-80
2020/12/30 05:45:55;;;;;;;24.92;16.63;;;8.80;99.60;;;;;;5106990;28;20195;-80
2020/12/30 05:48:33;;;;;;;23.85;17.75;;;8.70;99.70;;;;;;5106681;28;20183;-80
2020/12/30 05:51:02;;;;;;;35.90;29.92;;;8.70;99.80;;;;;;5109132;28;20603;-80
2020/12/30 05:53:33;;;;;;;28.25;23.00;;;8.80;99.70;;;;;;5108968;28;20228;-80
2020/12/30 05:56:10;;;;;;;45.03;30.38;;;8.80;99.70;;;;;;5108544;28;20565;-80
2020/12/30 05:58:48;;;;;;;29.30;23.17;;;8.80;99.90;;;;;;5108060;28;20258;-80
2020/12/30 06:01:27;;;;;;;33.55;26.42;;;8.70;99.70;;;;;;5109064;28;20509;-79
2020/12/30 06:04:24;;;;;;;27.38;21.92;;;8.70;99.80;;;;;;5108415;28;20160;-80
2020/12/30 06:06:51;;;;;;;25.33;18.80;;;8.60;99.90;;;;;;5106893;28;20183;-80
2020/12/30 06:09:20;;;;;;;19.40;16.77;;;8.50;99.90;;;;;;5107352;28;20176;-80
2020/12/30 06:11:56;;;;;;;20.20;17.67;;;8.60;99.90;;;;;;5108363;28;20175;-80
2020/12/30 06:14:22;;;;;;;23.67;17.42;;;8.60;99.90;;;;;;5105733;28;20567;-80
2020/12/30 06:16:48;;;;;;;24.48;18.02;;;8.60;99.90;;;;;;5108223;28;20238;-80
2020/12/30 06:19:26;;;;;;;27.38;20.35;;;8.60;99.90;;;;;;5108208;28;20259;-80
2020/12/30 06:21:52;;;;;;;22.95;19.23;;;8.60;99.90;;;;;;5107886;28;20204;-80
2020/12/30 06:24:21;;;;;;;28.15;20.20;;;8.70;99.80;;;;;;5107355;28;20191;-80
2020/12/30 06:26:49;;;;;;;24.88;19.95;;;8.70;99.90;;;;;;5108163;28;20281;-80
2020/12/30 06:29:21;;;;;;;23.25;18.73;;;8.70;99.90;;;;;;5106964;28;20309;-80
2020/12/30 06:31:48;;;;;;;21.00;16.85;;;8.70;99.90;;;;;;5108237;28;20260;-80
2020/12/30 06:34:22;;;;;;;23.25;17.92;;;8.60;99.90;;;;;;5107765;28;20650;-80
2020/12/30 06:36:48;;;;;;;20.60;18.23;;;8.60;99.90;;;;;;5107154;28;20176;-80
2020/12/30 06:39:25;;;;;;;23.00;18.63;;;8.60;99.90;;;;;;5107381;28;20187;-80
2020/12/30 06:42:05;;;;;;;20.73;18.00;;;8.60;99.90;;;;;;5107065;28;20203;-80
2020/12/30 06:44:43;;;;;;;22.58;17.25;;;8.60;99.90;;;;;;5107299;28;20205;-80
2020/12/30 06:47:14;;;;;;;20.58;17.27;;;8.60;99.90;;;;;;5107055;28;20808;-80
2020/12/30 06:49:40;;;;;;;24.55;17.95;;;8.60;99.90;;;;;;5106863;28;20198;-80
2020/12/30 06:52:24;;;;;;;23.23;18.90;;;8.50;99.90;;;;;;5108076;28;20239;-80
2020/12/30 06:54:50;;;;;;;27.00;18.58;;;8.50;99.90;;;;;;5106932;28;20444;-80
2020/12/30 06:57:44;;;;;;;23.57;19.10;;;8.50;99.90;;;;;;5106440;28;20184;-80
2020/12/30 07:00:31;;;;;;;23.60;17.55;;;8.50;99.90;;;;;;5107226;28;20221;-80
2020/12/30 07:03:19;;;;;;;23.48;16.85;;;8.60;99.90;;;;;;5105880;28;20202;-80
2020/12/30 07:05:48;;;;;;;21.65;17.55;;;8.60;99.90;;;;;;5106864;28;20180;-80
2020/12/30 07:08:37;;;;;;;22.30;17.55;;;8.60;99.90;;;;;;5105827;28;20541;-80
2020/12/30 07:11:03;;;;;;;24.52;16.80;;;8.70;99.90;;;;;;5107024;28;20221;-80
2020/12/30 07:13:37;;;;;;;20.63;18.47;;;8.70;99.90;;;;;;5106497;28;20183;-80
2020/12/30 07:16:18;;;;;;;22.70;20.27;;;8.70;99.90;;;;;;5107021;28;20634;-80
2020/12/30 07:18:50;;;;;;;23.52;17.42;;;8.60;99.90;;;;;;5106065;28;20164;-80
2020/12/30 07:21:17;;;;;;;21.13;17.75;;;8.60;99.90;;;;;;5107405;28;20700;-80
2020/12/30 07:23:45;;;;;;;21.92;18.60;;;8.70;99.90;;;;;;5106097;28;20689;-79
2020/12/30 07:26:28;;;;;;;24.15;19.50;;;8.70;99.90;;;;;;5107691;28;20567;-79
2020/12/30 07:29:00;;;;;;;25.15;19.83;;;8.80;99.90;;;;;;5107457;28;20160;-79
2020/12/30 07:31:34;;;;;;;28.25;20.65;;;8.90;99.90;;;;;;5108015;28;20175;-80
2020/12/30 07:34:18;;;;;;;28.40;22.65;;;8.90;99.90;;;;;;5104225;28;20161;-79
2020/12/30 07:36:56;;;;;;;28.70;21.10;;;8.90;99.90;;;;;;5103237;28;20594;-79
2020/12/30 07:39:34;;;;;;;32.70;23.85;;;9.00;99.90;;;;;;5104390;28;20167;-79
2020/12/30 07:42:00;;;;;;;25.33;19.13;;;9.00;99.90;;;;;;5105852;28;20207;-79
2020/12/30 07:44:32;;;;;;;24.58;18.73;;;9.00;99.90;;;;;;5104611;28;20664;-79
2020/12/30 07:47:07;;;;;;;21.95;17.95;;;9.10;99.90;;;;;;5106016;28;20187;-79
2020/12/30 07:49:35;;;;;;;29.17;22.05;;;9.20;99.60;;;;;;5105785;28;20208;-79
2020/12/30 07:52:03;;;;;;;25.33;19.45;;;9.10;99.90;;;;;;5104875;28;20188;-79
2020/12/30 07:54:29;;;;;;;24.38;19.50;;;9.20;99.90;;;;;;5105363;28;20634;-79
2020/12/30 07:57:21;;;;;;;19.42;17.42;;;9.40;99.60;;;;;;5105948;28;20543;-79
2020/12/30 07:59:51;;;;;;;24.48;17.00;;;9.40;99.60;;;;;;5106490;28;20152;-79
2020/12/30 08:02:24;;;;;;;20.58;16.38;;;9.30;99.60;;;;;;5091688;28;20200;-79
2020/12/30 08:05:00;;;;;;;23.40;18.92;;;9.20;99.90;;;;;;5087932;28;20564;-78
2020/12/30 08:07:31;;;;;;;19.17;15.32;;;9.30;99.90;;;;;;5101360;28;20701;-80
2020/12/30 08:10:28;;;;;;;18.38;15.27;;;9.80;99.80;;;;;;5101858;28;20186;-79
2020/12/30 08:12:53;;;;;;;13.90;12.60;;;10.30;99.00;;;;;;5096053;28;20200;-79
2020/12/30 08:15:25;;;;;;;16.03;12.93;;;11.00;97.20;;;;;;5089805;28;20172;-79
2020/12/30 08:17:53;;;;;;;13.27;11.97;;;11.60;96.10;;;;;;5103282;28;20242;-79
2020/12/30 08:20:22;;;;;;;22.33;19.30;;;12.10;93.20;;;;;;5089041;28;20401;-79
2020/12/30 08:22:47;;;;;;;32.03;27.60;;;11.80;93.50;;;;;;5103051;28;20461;-80
2020/12/30 08:25:13;;;;;;;20.37;18.03;;;11.90;94.20;;;;;;5086764;28;20466;-80
2020/12/30 08:27:42;;;;;;;28.93;21.43;;;11.20;94.30;;;;;;5089509;28;20172;-79
2020/12/30 08:30:08;;;;;;;14.77;13.27;;;11.40;94.90;;;;;;5089294;28;20185;-79
2020/12/30 08:33:02;;;;;;;15.43;12.77;;;11.30;95.00;;;;;;5087598;28;20428;-79
2020/12/30 08:35:33;;;;;;;14.30;12.90;;;11.20;95.00;;;;;;5101100;28;20620;-79
2020/12/30 08:38:27;;;;;;;16.30;14.60;;;11.00;95.20;;;;;;5109341;28;20420;-79
2020/12/30 08:40:54;;;;;;;17.87;15.43;;;10.80;95.90;;;;;;5105978;28;20428;-79
2020/12/30 08:43:33;;;;;;;18.57;16.20;;;10.80;96.10;;;;;;5097926;28;20453;-79
2020/12/30 08:46:18;;;;;;;20.07;17.97;;;10.70;96.80;;;;;;5087017;28;20417;-79
2020/12/30 08:48:47;;;;;;;23.27;20.88;;;10.50;97.60;;;;;;5086667;28;20420;-79
2020/12/30 08:51:34;;;;;;;30.60;27.58;;;10.40;97.80;;;;;;5086685;28;20616;-79
2020/12/30 08:54:00;;;;;;;23.40;20.90;;;10.30;97.90;;;;;;5086460;28;20224;-79
2020/12/30 08:56:27;;;;;;;48.60;43.88;;;10.10;98.20;;;;;;5086157;28;20545;-79
2020/12/30 08:58:57;;;;;;;33.33;30.13;;;10.10;98.40;;;;;;5087515;28;20188;-79
2020/12/30 09:01:27;;;;;;;35.80;32.03;;;10.00;98.10;;;;;;5087332;28;20176;-79
2020/12/30 09:03:53;;;;;;;44.92;40.50;;;10.00;98.70;;;;;;5091777;28;20219;-77
2020/12/30 09:06:32;;;;;;;45.20;34.60;;;10.00;98.50;;;;;;5102532;28;20187;-77
2020/12/30 09:09:08;;;;;;;35.70;30.67;;;10.00;98.60;;;;;;5100028;28;20202;-77
2020/12/30 09:11:38;;;;;;;32.75;28.65;;;10.00;98.90;;;;;;5107812;28;20643;-79
2020/12/30 09:14:23;;;;;;;22.95;19.73;;;10.00;98.60;;;;;;5091231;28;20518;-79
2020/12/30 09:17:01;;;;;;;15.48;13.85;;;9.90;99.00;;;;;;5089151;28;20242;-79
2020/12/30 09:19:27;;;;;;;19.80;16.88;;;10.00;98.80;;;;;;5088656;28;20180;-78
2020/12/30 09:22:11;;;;;;;18.20;15.88;;;10.00;98.90;;;;;;5090573;28;20208;-84
2020/12/30 09:24:41;;;;;;;66.32;46.13;;;10.10;98.60;;;;;;5102156;28;20164;-79
2020/12/30 09:27:25;;;;;;;34.58;24.92;;;10.20;98.50;;;;;;5109090;28;20184;-83
2020/12/30 09:30:10;;;;;;;15.32;13.70;;;10.20;98.70;;;;;;5089111;28;20640;-84
2020/12/30 09:32:41;;;;;;;16.92;15.23;;;10.20;98.60;;;;;;5105455;28;20189;-82
2020/12/30 09:35:11;;;;;;;16.08;14.18;;;10.30;98.50;;;;;;5098278;28;20187;-84
2020/12/30 09:37:38;;;;;;;19.80;15.70;;;10.40;98.20;;;;;;5105881;28;20200;-79
2020/12/30 09:40:14;;;;;;;19.10;17.10;;;10.30;98.30;;;;;;5094373;28;20184;-79
2020/12/30 09:42:42;;;;;;;21.80;16.23;;;10.00;99.30;;;;;;5094477;28;20204;-78
2020/12/30 09:45:12;;;;;;;24.92;20.35;;;9.90;99.60;;;;;;5093997;28;20242;-78
2020/12/30 09:47:47;;;;;;;20.73;15.23;;;10.10;99.40;;;;;;5092876;28;20505;-78
2020/12/30 09:50:15;;;;;;;22.45;18.85;;;10.00;98.60;;;;;;5092895;28;20201;-78
2020/12/30 09:52:43;;;;;;;17.55;15.73;;;10.00;98.30;;;;;;5094110;28;20636;-78
2020/12/30 09:55:18;;;;;;;19.70;17.42;;;10.00;99.20;;;;;;5094647;28;20176;-81
2020/12/30 09:57:43;;;;;;;18.90;16.45;;;10.10;98.50;;;;;;5093060;28;20180;-80
2020/12/30 10:00:15;;;;;;;18.47;16.60;;;10.10;98.10;;;;;;5094110;28;20313;-80
2020/12/30 10:02:43;;;;;;;19.90;17.50;;;10.30;98.30;;;;;;5094410;28;20239;-80
2020/12/30 10:05:09;;;;;;;23.40;18.10;;;10.40;97.20;;;;;;5094039;28;20542;-80
2020/12/30 10:07:37;;;;;;;44.47;32.37;;;10.50;97.20;;;;;;5105623;28;20187;-80
2020/12/30 10:10:16;;;;;;;68.68;49.40;;;10.50;97.00;;;;;;5093994;28;20191;-80
2020/12/30 10:12:44;;;;;;;36.53;29.85;;;10.60;97.10;;;;;;5093032;28;20660;-80
2020/12/30 10:15:14;;;;;;;25.98;23.13;;;10.50;97.10;;;;;;5094487;28;20187;-81
2020/12/30 10:17:40;;;;;;;42.10;37.65;;;10.60;96.90;;;;;;5109689;28;20184;-81
2020/12/30 10:20:07;;;;;;;31.20;24.30;;;10.80;96.70;;;;;;5093927;28;20658;-81
2020/12/30 10:22:57;;;;;;;65.43;52.58;;;10.80;96.50;;;;;;5094327;28;20952;-81
2020/12/30 10:25:28;;;;;;;27.38;21.25;;;10.90;96.50;;;;;;5094008;28;20657;-81
2020/12/30 10:27:59;;;;;;;43.30;34.92;;;10.90;96.40;;;;;;5093841;28;20180;-81
2020/12/30 10:30:31;;;;;;;28.90;25.90;;;10.90;96.60;;;;;;5094192;28;20235;-81
2020/12/30 10:32:59;;;;;;;27.85;25.25;;;10.90;96.40;;;;;;5093935;28;20176;-81
2020/12/30 10:35:27;;;;;;;26.88;17.17;;;10.80;96.60;;;;;;5093293;28;20207;-81
2020/12/30 10:37:53;;;;;;;15.75;13.85;;;10.90;96.70;;;;;;5096692;28;20215;-81
2020/12/30 10:40:22;;;;;;;20.57;13.37;;;10.90;96.40;;;;;;5111779;28;20218;-81
2020/12/30 10:42:48;;;;;;;16.17;14.18;;;11.00;96.30;;;;;;5108458;28;20218;-81
2020/12/30 10:45:14;;;;;;;16.48;12.63;;;10.90;96.40;;;;;;5109430;28;20176;-81
2020/12/30 10:47:41;;;;;;;14.83;13.33;;;10.90;96.30;;;;;;5109828;28;20567;-80
2020/12/30 10:50:07;;;;;;;16.70;13.02;;;10.90;96.30;;;;;;5113441;28;20175;-81
2020/12/30 10:52:41;;;;;;;18.50;13.73;;;10.90;96.50;;;;;;5103778;28;20705;-81
2020/12/30 10:55:10;;;;;;;15.95;13.43;;;10.90;96.10;;;;;;5101732;27;20434;-81
2020/12/30 10:57:38;;;;;;;18.60;14.25;;;11.00;96.00;;;;;;5099629;28;20192;-83
2020/12/30 11:00:04;;;;;;;12.35;11.13;;;11.00;96.10;;;;;;5103841;28;20553;-80
2020/12/30 11:02:29;;;;;;;13.90;12.50;;;11.00;95.80;;;;;;5110038;28;20223;-79
2020/12/30 11:04:59;;;;;;;14.30;12.30;;;11.00;95.90;;;;;;5092096;28;20376;-80
2020/12/30 11:07:28;;;;;;;17.80;13.40;;;11.10;95.60;;;;;;5092185;28;20184;-81
2020/12/30 11:09:54;;;;;;;18.15;14.35;;;11.20;95.50;;;;;;5091663;28;20636;-80
2020/12/30 11:12:22;;;;;;;18.40;16.30;;;11.20;95.50;;;;;;5090252;28;20184;-80
2020/12/30 11:14:50;;;;;;;19.10;15.20;;;11.20;95.70;;;;;;5084682;28;20180;-79
2020/12/30 11:17:22;;;;;;;17.25;15.40;;;11.30;95.30;;;;;;5092002;28;20192;-79
2020/12/30 11:19:51;;;;;;;17.98;13.75;;;11.30;95.10;;;;;;5090034;28;20185;-80
2020/12/30 11:22:17;;;;;;;16.75;14.43;;;11.20;95.10;;;;;;5091541;28;20310;-79
2020/12/30 11:24:42;;;;;;;19.60;17.70;;;11.20;95.80;;;;;;5091720;28;20243;-80
2020/12/30 11:27:17;;;;;;;22.37;15.40;;;11.20;95.60;;;;;;5091768;28;20176;-80
2020/12/30 11:29:46;;;;;;;19.75;16.70;;;11.30;94.80;;;;;;5093433;28;20180;-80
2020/12/30 11:32:11;;;;;;;17.90;16.10;;;11.10;95.10;;;;;;5111463;28;20241;-80
2020/12/30 11:34:40;;;;;;;16.43;13.97;;;11.20;95.20;;;;;;5097359;28;20207;-80
2020/12/30 11:37:08;;;;;;;17.25;14.77;;;11.20;95.00;;;;;;5110908;28;20639;-79
2020/12/30 11:39:34;;;;;;;16.80;14.75;;;11.10;95.20;;;;;;5092604;28;20184;-79
2020/12/30 11:42:00;;;;;;;19.00;15.90;;;11.20;95.20;;;;;;5090989;28;20204;-79
2020/12/30 11:44:28;;;;;;;19.13;15.90;;;11.20;95.10;;;;;;5091643;28;20226;-79
2020/12/30 11:46:54;;;;;;;24.02;14.77;;;11.20;95.00;;;;;;5091031;28;20206;-79
2020/12/30 11:49:19;;;;;;;22.00;18.90;;;11.20;95.10;;;;;;5096905;28;20181;-79
2020/12/30 11:51:45;;;;;;;25.00;22.50;;;11.00;95.00;;;;;;5093949;28;20188;-80
2020/12/30 11:54:14;;;;;;;30.57;20.60;;;11.00;95.20;;;;;;5094773;28;20531;-79
2020/12/30 11:56:42;;;;;;;22.48;20.10;;;11.00;95.10;;;;;;5094711;28;20183;-79
2020/12/30 11:59:14;;;;;;;21.27;18.90;;;11.00;95.30;;;;;;5094272;28;20172;-79
2020/12/30 12:01:42;;;;;;;18.50;16.23;;;11.00;95.40;;;;;;5094264;28;20184;-79
2020/12/30 12:04:10;;;;;;;17.17;14.85;;;10.90;95.40;;;;;;5094875;28;20555;-79
2020/12/30 12:06:36;;;;;;;16.30;14.60;;;10.90;95.20;;;;;;5094347;28;20189;-79
2020/12/30 12:09:13;;;;;;;33.17;26.27;;;10.90;95.60;;;;;;5106962;28;20183;-80
2020/12/30 12:11:39;;;;;;;24.67;18.95;;;10.90;95.50;;;;;;5115434;28;20203;-79
2020/12/30 12:14:04;;;;;;;26.37;20.23;;;10.90;95.40;;;;;;5098669;28;20569;-79
2020/12/30 12:16:36;;;;;;;21.57;18.83;;;11.00;95.10;;;;;;5093656;28;20199;-79
2020/12/30 12:19:07;;;;;;;27.77;24.77;;;11.10;94.90;;;;;;5094647;28;20192;-79
2020/12/30 12:21:39;;;;;;;32.47;26.88;;;11.10;95.40;;;;;;5093593;28;20261;-80
2020/12/30 12:24:04;;;;;;;20.65;17.42;;;11.10;95.40;;;;;;5093360;28;20204;-80
2020/12/30 12:26:33;;;;;;;22.20;18.97;;;11.10;95.20;;;;;;5095488;28;20605;-79
2020/12/30 12:29:35;;;;;;;18.88;16.10;;;11.20;94.80;;;;;;5094891;28;20185;-80
2020/12/30 12:32:06;;;;;;;20.17;18.20;;;11.10;94.90;;;;;;5091027;28;20215;-79
2020/12/30 12:34:33;;;;;;;17.45;14.45;;;11.10;94.90;;;;;;5107132;28;20203;-79
2020/12/30 12:37:02;;;;;;;19.13;17.13;;;11.20;95.00;;;;;;5114552;28;20182;-79
2020/12/30 12:39:27;;;;;;;20.85;16.27;;;11.30;94.90;;;;;;5101717;28;20542;-80
2020/12/30 12:41:54;;;;;;;22.43;20.03;;;11.20;95.50;;;;;;5101465;28;20188;-79
2020/12/30 12:44:23;;;;;;;28.35;23.70;;;11.20;95.50;;;;;;5104827;28;20412;-81
2020/12/30 12:46:51;;;;;;;21.23;18.05;;;11.20;95.60;;;;;;5104479;28;20629;-78
2020/12/30 12:49:20;;;;;;;27.20;22.40;;;10.90;96.60;;;;;;5094618;28;20538;-80
2020/12/30 12:52:08;;;;;;;22.77;18.13;;;11.00;96.40;;;;;;5096932;28;20215;-79
2020/12/30 12:54:47;;;;;;;21.55;18.25;;;10.90;96.40;;;;;;5094220;28;20607;-80